createdAt,value
2018-07-03T00:00:52.427Z,100113.00
2018-07-03T00:03:20.287Z,100108.00
2018-07-03T00:05:48.012Z,100108.00
2018-07-03T00:08:15.683Z,100113.00
2018-07-03T00:10:43.278Z,100103.00
2018-07-03T00:13:10.908Z,100106.00
2018-07-03T00:15:38.564Z,100104.00
2018-07-03T00:18:06.230Z,100106.00
2018-07-03T00:20:33.877Z,100106.00
2018-07-03T00:23:01.771Z,100099.00
2018-07-03T00:25:29.408Z,100095.00
2018-07-03T00:27:56.988Z,100102.00
2018-07-03T00:30:24.761Z,100106.00
2018-07-03T00:32:52.459Z,100110.00
2018-07-03T00:35:20.182Z,100107.00
2018-07-03T00:37:47.951Z,100106.00
2018-07-03T00:40:15.631Z,100103.00
2018-07-03T00:42:43.313Z,100106.00
2018-07-03T00:45:10.957Z,100100.00
2018-07-03T00:47:38.575Z,100101.00
2018-07-03T00:50:06.331Z,100099.00
2018-07-03T00:52:34.096Z,100094.00
2018-07-03T00:55:01.794Z,100098.00
2018-07-03T00:57:29.542Z,100092.00
2018-07-03T01:00:15.006Z,100089.00
2018-07-03T01:02:42.647Z,100086.00
2018-07-03T01:05:11.320Z,100084.00
2018-07-03T01:07:39.096Z,100091.00
2018-07-03T01:10:06.815Z,100094.00
2018-07-03T01:12:34.551Z,100097.00
2018-07-03T01:15:02.304Z,100094.00
2018-07-03T01:17:30.132Z,100095.00
2018-07-03T01:19:57.816Z,100093.00
2018-07-03T01:22:25.567Z,100095.00
2018-07-03T01:24:53.237Z,100095.00
2018-07-03T01:27:21.022Z,100093.00
2018-07-03T01:29:48.735Z,100091.00
2018-07-03T01:32:16.394Z,100088.00
2018-07-03T01:34:44.050Z,100090.00
2018-07-03T01:37:11.760Z,100096.00
2018-07-03T01:39:39.639Z,100087.00
2018-07-03T01:42:07.435Z,100093.00
2018-07-03T01:44:35.055Z,100092.00
2018-07-03T01:47:02.725Z,100096.00
2018-07-03T01:49:30.375Z,100093.00
2018-07-03T01:51:57.996Z,100099.00
2018-07-03T01:54:25.693Z,100099.00
2018-07-03T01:56:53.391Z,100103.00
2018-07-03T01:59:21.626Z,100100.00
2018-07-03T02:01:49.241Z,100097.00
2018-07-03T02:04:16.851Z,100095.00
2018-07-03T02:06:44.459Z,100087.00
2018-07-03T02:09:13.122Z,100093.00
2018-07-03T02:31:21.287Z,100092.00
2018-07-03T02:33:49.036Z,100094.00
2018-07-03T02:36:16.676Z,100094.00
2018-07-03T02:38:44.343Z,100093.00
2018-07-03T02:41:12.211Z,100095.00
2018-07-03T02:43:39.812Z,100086.00
2018-07-03T02:46:07.720Z,100093.00
2018-07-03T02:48:35.363Z,100090.00
2018-07-03T02:51:03.040Z,100089.00
2018-07-03T02:53:30.946Z,100096.00
2018-07-03T02:55:58.551Z,100094.00
2018-07-03T02:58:26.279Z,100083.00
2018-07-03T03:00:53.921Z,100086.00
2018-07-03T03:03:21.717Z,100092.00
2018-07-03T03:05:49.341Z,100091.00
2018-07-03T03:08:17.071Z,100093.00
2018-07-03T03:10:44.690Z,100089.00
2018-07-03T03:13:12.481Z,100084.00
2018-07-03T03:15:40.191Z,100081.00
2018-07-03T03:18:07.854Z,100083.00
2018-07-03T03:20:35.590Z,100085.00
2018-07-03T03:23:03.306Z,100088.00
2018-07-03T03:25:30.925Z,100091.00
2018-07-03T03:27:58.616Z,100091.00
2018-07-03T03:30:26.369Z,100094.00
2018-07-03T03:32:54.031Z,100095.00
2018-07-03T03:35:21.729Z,100103.00
2018-07-03T03:37:49.449Z,100107.00
2018-07-03T03:40:17.155Z,100109.00
2018-07-03T03:42:44.902Z,100108.00
2018-07-03T03:45:12.741Z,100118.00
2018-07-03T03:47:40.738Z,100127.00
2018-07-03T03:50:08.403Z,100131.00
2018-07-03T03:52:36.053Z,100133.00
2018-07-03T03:55:03.833Z,100136.00
2018-07-03T03:57:31.546Z,100131.00
2018-07-03T03:59:59.188Z,100132.00
2018-07-03T04:02:26.928Z,100132.00
2018-07-03T04:04:54.558Z,100130.00
2018-07-03T04:07:22.352Z,100135.00
2018-07-03T04:10:00.207Z,100130.00
2018-07-03T04:12:27.975Z,100129.00
2018-07-03T04:14:55.807Z,100130.00
2018-07-03T04:17:23.547Z,100133.00
2018-07-03T04:19:51.366Z,100129.00
2018-07-03T04:22:19.089Z,100124.00
2018-07-03T04:24:46.733Z,100129.00
2018-07-03T04:27:14.329Z,100127.00
2018-07-03T04:29:42.084Z,100125.00
2018-07-03T04:32:09.713Z,100126.00
2018-07-03T04:34:37.443Z,100123.00
2018-07-03T04:37:05.112Z,100121.00
2018-07-03T04:39:32.775Z,100121.00
2018-07-03T04:42:00.361Z,100123.00
2018-07-03T04:44:28.032Z,100121.00
2018-07-03T04:46:55.728Z,100121.00
2018-07-03T04:49:23.346Z,100126.00
2018-07-03T04:51:51.018Z,100133.00
2018-07-03T04:54:18.835Z,100134.00
2018-07-03T04:56:46.531Z,100130.00
2018-07-03T04:59:14.158Z,100133.00
2018-07-03T05:01:42.012Z,100128.00
2018-07-03T05:04:09.679Z,100131.00
2018-07-03T05:06:37.580Z,100134.00
2018-07-03T05:09:08.911Z,100138.00
2018-07-03T05:11:36.618Z,100143.00
2018-07-03T05:14:04.233Z,100140.00
2018-07-03T05:16:31.925Z,100145.00
2018-07-03T05:18:59.588Z,100146.00
2018-07-03T05:21:27.424Z,100149.00
2018-07-03T05:23:55.111Z,100153.00
2018-07-03T05:26:22.723Z,100147.00
2018-07-03T05:28:50.561Z,100146.00
2018-07-03T05:31:18.849Z,100145.00
2018-07-03T05:33:46.458Z,100150.00
2018-07-03T05:36:14.216Z,100154.00
2018-07-03T05:38:41.966Z,100157.00
2018-07-03T05:41:09.711Z,100159.00
2018-07-03T05:43:37.388Z,100164.00
2018-07-03T05:46:05.069Z,100160.00
2018-07-03T05:48:32.736Z,100165.00
2018-07-03T05:51:00.504Z,100169.00
2018-07-03T05:53:28.391Z,100165.00
2018-07-03T05:55:56.145Z,100161.00
2018-07-03T05:58:23.783Z,100157.00
2018-07-03T06:00:51.431Z,100160.00
2018-07-03T06:03:19.123Z,100166.00
2018-07-03T06:05:46.817Z,100166.00
2018-07-03T06:08:14.551Z,100167.00
2018-07-03T06:10:42.355Z,100164.00
2018-07-03T06:13:10.148Z,100167.00
2018-07-03T06:15:37.772Z,100174.00
2018-07-03T06:18:05.456Z,100173.00
2018-07-03T06:20:33.347Z,100168.00
2018-07-03T06:23:00.967Z,100173.00
2018-07-03T06:25:28.640Z,100172.00
2018-07-03T06:27:56.443Z,100176.00
2018-07-03T06:30:24.203Z,100172.00
2018-07-03T06:32:51.851Z,100164.00
2018-07-03T06:35:19.662Z,100162.00
2018-07-03T06:37:47.264Z,100158.00
2018-07-03T06:40:15.004Z,100162.00
2018-07-03T06:42:42.833Z,100160.00
2018-07-03T06:45:10.478Z,100165.00
2018-07-03T06:47:38.150Z,100166.00
2018-07-03T06:50:06.128Z,100163.00
2018-07-03T06:52:33.716Z,100162.00
2018-07-03T06:55:01.343Z,100170.00
2018-07-03T06:57:28.931Z,100157.00
2018-07-03T06:59:56.588Z,100155.00
2018-07-03T07:02:24.283Z,100159.00
2018-07-03T07:04:52.136Z,100155.00
2018-07-03T07:07:19.806Z,100152.00
2018-07-03T07:09:47.466Z,100152.00
2018-07-03T07:12:15.229Z,100153.00
2018-07-03T07:14:42.935Z,100154.00
2018-07-03T07:17:10.674Z,100153.00
2018-07-03T07:19:38.277Z,100149.00
2018-07-03T07:22:05.942Z,100145.00
2018-07-03T07:24:33.531Z,100146.00
2018-07-03T07:27:01.246Z,100152.00
2018-07-03T07:29:28.902Z,100146.00
2018-07-03T07:31:56.562Z,100143.00
2018-07-03T07:34:24.460Z,100139.00
2018-07-03T07:36:52.105Z,100131.00
2018-07-03T07:39:19.667Z,100138.00
2018-07-03T07:41:47.367Z,100137.00
2018-07-03T07:44:15.000Z,100137.00
2018-07-03T07:46:42.629Z,100141.00
2018-07-03T07:49:10.248Z,100134.00
2018-07-03T07:51:37.867Z,100132.00
2018-07-03T07:54:05.485Z,100134.00
2018-07-03T07:56:33.119Z,100123.00
2018-07-03T07:59:00.914Z,100126.00
2018-07-03T08:01:28.581Z,100127.00
2018-07-03T08:03:56.231Z,100125.00
2018-07-03T08:06:24.000Z,100123.00
2018-07-03T08:08:51.644Z,100126.00
2018-07-03T08:11:19.255Z,100129.00
2018-07-03T08:13:46.899Z,100126.00
2018-07-03T08:16:14.642Z,100118.00
2018-07-03T08:18:42.403Z,100121.00
2018-07-03T08:21:10.116Z,100112.00
2018-07-03T08:23:37.778Z,100117.00
2018-07-03T08:26:05.723Z,100117.00
2018-07-03T08:28:33.252Z,100114.00
2018-07-03T08:31:00.833Z,100112.00
2018-07-03T08:33:28.524Z,100114.00
2018-07-03T08:35:56.151Z,100114.00
2018-07-03T08:38:23.794Z,100113.00
2018-07-03T08:40:51.399Z,100111.00
2018-07-03T08:43:19.056Z,100111.00
2018-07-03T08:45:46.692Z,100116.00
2018-07-03T08:48:14.336Z,100109.00
2018-07-03T08:50:42.161Z,100112.00
2018-07-03T08:53:09.731Z,100110.00
2018-07-03T08:55:37.392Z,100105.00
2018-07-03T08:58:05.035Z,100111.00
2018-07-03T09:00:32.652Z,100113.00
2018-07-03T09:03:00.256Z,100112.00
2018-07-03T09:05:27.931Z,100103.00
2018-07-03T09:07:55.575Z,100108.00
2018-07-03T09:10:23.308Z,100110.00
2018-07-03T09:12:50.855Z,100106.00
2018-07-03T09:15:18.407Z,100102.00
2018-07-03T09:17:46.028Z,100104.00
2018-07-03T09:20:13.640Z,100104.00
2018-07-03T09:22:41.306Z,100095.00
2018-07-03T09:25:08.983Z,100095.00
2018-07-03T09:27:36.628Z,100091.00
2018-07-03T09:30:06.365Z,100098.00
2018-07-03T09:32:33.948Z,100097.00
2018-07-03T09:35:01.573Z,100095.00
2018-07-03T09:37:29.144Z,100092.00
2018-07-03T09:39:56.774Z,100085.00
2018-07-03T09:42:24.433Z,100088.00
2018-07-03T09:44:52.011Z,100087.00
2018-07-03T09:47:19.567Z,100086.00
2018-07-03T09:49:47.434Z,100086.00
2018-07-03T09:52:15.097Z,100085.00
2018-07-03T09:54:42.855Z,100080.00
2018-07-03T09:57:10.542Z,100084.00
2018-07-03T09:59:38.124Z,100082.00
2018-07-03T10:02:06.798Z,100082.00
2018-07-03T10:04:34.553Z,100079.00
2018-07-03T10:07:02.206Z,100077.00
2018-07-03T10:09:29.799Z,100076.00
2018-07-03T10:11:57.436Z,100079.00
2018-07-03T10:14:25.158Z,100075.00
2018-07-03T10:16:52.777Z,100070.00
2018-07-03T10:19:20.399Z,100077.00
2018-07-03T10:21:48.009Z,100064.00
2018-07-03T10:24:15.569Z,100064.00
2018-07-03T10:26:43.177Z,100056.00
2018-07-03T10:29:10.751Z,100055.00
2018-07-03T10:31:38.362Z,100058.00
2018-07-03T10:34:06.012Z,100056.00
2018-07-03T10:36:33.654Z,100052.00
2018-07-03T10:39:01.304Z,100051.00
2018-07-03T10:41:28.903Z,100053.00
2018-07-03T10:43:56.483Z,100057.00
2018-07-03T10:46:24.141Z,100052.00
2018-07-03T10:48:52.590Z,100047.00
2018-07-03T10:51:20.205Z,100046.00
2018-07-03T10:53:47.845Z,100038.00
2018-07-03T10:56:15.468Z,100044.00
2018-07-03T10:58:43.092Z,100046.00
2018-07-03T11:01:11.058Z,100037.00
2018-07-03T11:03:38.786Z,100033.00
2018-07-03T11:06:06.460Z,100032.00
2018-07-03T11:08:34.065Z,100025.00
2018-07-03T11:11:01.726Z,100026.00
2018-07-03T11:13:29.339Z,100023.00
2018-07-03T11:15:57.119Z,100019.00
2018-07-03T11:18:24.772Z,100019.00
2018-07-03T11:20:52.368Z,100023.00
2018-07-03T11:23:20.069Z,100022.00
2018-07-03T11:25:47.664Z,100022.00
2018-07-03T11:28:15.272Z,100019.00
2018-07-03T11:30:42.934Z,100022.00
2018-07-03T11:33:10.495Z,100021.00
2018-07-03T11:35:38.096Z,100020.00
2018-07-03T11:38:05.716Z,100026.00
2018-07-03T11:40:33.327Z,100022.00
2018-07-03T11:43:01.225Z,100020.00
2018-07-03T11:45:28.876Z,100017.00
2018-07-03T11:47:56.560Z,100024.00
2018-07-03T11:50:24.270Z,100016.00
2018-07-03T11:52:51.844Z,100022.00
2018-07-03T11:55:19.467Z,100017.00
2018-07-03T11:57:47.141Z,100023.00
2018-07-03T12:00:15.197Z,100024.00
2018-07-03T12:02:42.900Z,100025.00
2018-07-03T12:05:10.496Z,100015.00
2018-07-03T12:07:38.078Z,100007.00
2018-07-03T12:10:05.744Z,100011.00
2018-07-03T12:12:33.369Z,100014.00
2018-07-03T12:15:00.996Z,100017.00
2018-07-03T12:17:28.576Z,100007.00
2018-07-03T12:19:56.291Z,100008.00
2018-07-03T12:22:23.963Z,100010.00
2018-07-03T12:24:51.680Z,100000.00
2018-07-03T12:27:19.320Z,100004.00
2018-07-03T12:29:47.011Z,99995.00
2018-07-03T12:32:14.689Z,99996.00
2018-07-03T12:34:42.313Z,99983.00
2018-07-03T12:37:09.947Z,99989.00
2018-07-03T12:39:37.555Z,99995.00
2018-07-03T12:42:05.752Z,99997.00
2018-07-03T12:44:33.342Z,99992.00
2018-07-03T12:47:01.178Z,99986.00
2018-07-03T12:49:28.797Z,99980.00
2018-07-03T12:51:56.371Z,99982.00
2018-07-03T12:54:23.956Z,99979.00
2018-07-03T12:56:51.631Z,99986.00
2018-07-03T12:59:19.327Z,99987.00
2018-07-03T13:01:46.968Z,99983.00
2018-07-03T13:04:14.595Z,99976.00
2018-07-03T13:06:42.514Z,99972.00
2018-07-03T13:09:11.388Z,99973.00
2018-07-03T13:11:39.439Z,99969.00
2018-07-03T13:14:07.116Z,99961.00
2018-07-03T13:16:34.743Z,99959.00
2018-07-03T13:19:09.311Z,99957.00
2018-07-03T13:21:37.110Z,99954.00
2018-07-03T13:24:05.004Z,99951.00
2018-07-03T13:26:32.681Z,99964.00
2018-07-03T13:29:00.451Z,99956.00
2018-07-03T13:31:28.211Z,99953.00
2018-07-03T13:33:55.790Z,99948.00
2018-07-03T13:36:23.478Z,99962.00
2018-07-03T13:38:51.104Z,99954.00
2018-07-03T13:41:19.892Z,99964.00
2018-07-03T13:43:47.511Z,99959.00
2018-07-03T13:46:22.416Z,99956.00
2018-07-03T13:48:49.973Z,99956.00
2018-07-03T13:51:17.555Z,99958.00
2018-07-03T13:53:45.210Z,99949.00
2018-07-03T13:56:12.844Z,99951.00
2018-07-03T13:58:40.485Z,99946.00
2018-07-03T14:01:08.159Z,99947.00
2018-07-03T14:03:36.436Z,99948.00
2018-07-03T14:06:04.159Z,99948.00
2018-07-03T14:08:31.768Z,99946.00
2018-07-03T14:10:59.428Z,99947.00
2018-07-03T14:13:26.999Z,99951.00
2018-07-03T14:15:54.652Z,99948.00
2018-07-03T14:18:25.224Z,99951.00
2018-07-03T14:20:54.295Z,99943.00
2018-07-03T14:23:21.938Z,99944.00
2018-07-03T14:25:49.616Z,99932.00
2018-07-03T14:28:17.239Z,99939.00
2018-07-03T14:30:44.935Z,99940.00
2018-07-03T14:33:12.550Z,99945.00
2018-07-03T14:35:40.347Z,99943.00
2018-07-03T14:38:08.053Z,99940.00
2018-07-03T14:40:35.713Z,99935.00
2018-07-03T14:43:03.353Z,99941.00
2018-07-03T14:45:30.972Z,99938.00
2018-07-03T14:47:58.715Z,99938.00
2018-07-03T14:50:26.428Z,99928.00
2018-07-03T14:52:54.248Z,99926.00
2018-07-03T14:55:21.826Z,99924.00
2018-07-03T14:57:49.752Z,99929.00
2018-07-03T15:00:17.391Z,99929.00
2018-07-03T15:02:45.810Z,99923.00
2018-07-03T15:05:13.405Z,99930.00
2018-07-03T15:07:41.050Z,99921.00
2018-07-03T15:10:08.727Z,99928.00
2018-07-03T15:12:36.432Z,99924.00
2018-07-03T15:15:04.415Z,99932.00
2018-07-03T15:17:31.957Z,99929.00
2018-07-03T15:19:59.884Z,99930.00
2018-07-03T15:22:27.497Z,99924.00
2018-07-03T15:24:55.287Z,99918.00
2018-07-03T15:27:22.880Z,99920.00
2018-07-03T15:29:50.479Z,99913.00
2018-07-03T15:32:18.096Z,99916.00
2018-07-03T15:34:45.724Z,99910.00
2018-07-03T15:37:13.364Z,99911.00
2018-07-03T15:39:40.939Z,99909.00
2018-07-03T15:42:08.507Z,99894.00
2018-07-03T15:47:28.122Z,99904.00
2018-07-03T15:49:55.759Z,99901.00
2018-07-03T15:52:23.411Z,99901.00
2018-07-03T15:54:50.991Z,99898.00
2018-07-03T15:57:18.614Z,99894.00
2018-07-03T15:59:46.163Z,99902.00
2018-07-03T16:02:13.806Z,99901.00
2018-07-03T16:05:24.158Z,99896.00
2018-07-03T16:08:10.758Z,99894.00
2018-07-03T16:10:38.480Z,99892.00
2018-07-03T16:13:06.075Z,99890.00
2018-07-03T16:15:33.720Z,99889.00
2018-07-03T16:18:01.340Z,99889.00
2018-07-03T16:20:34.743Z,99882.00
2018-07-03T16:23:02.383Z,99890.00
2018-07-03T16:25:30.124Z,99889.00
2018-07-03T16:27:57.724Z,99884.00
2018-07-03T16:30:25.300Z,99886.00
2018-07-03T16:32:52.910Z,99888.00
2018-07-03T16:35:20.591Z,99890.00
2018-07-03T16:37:49.248Z,99890.00
2018-07-03T16:40:16.875Z,99891.00
2018-07-03T16:42:44.494Z,99890.00
2018-07-03T16:45:12.143Z,99888.00
2018-07-03T16:47:39.846Z,99886.00
2018-07-03T16:50:07.458Z,99887.00
2018-07-03T16:52:35.051Z,99889.00
2018-07-03T16:55:02.755Z,99886.00
2018-07-03T16:57:30.391Z,99881.00
2018-07-03T16:59:58.006Z,99878.00
2018-07-03T17:02:25.648Z,99874.00
2018-07-03T17:04:53.288Z,99874.00
2018-07-03T17:07:21.004Z,99871.00
2018-07-03T17:09:48.587Z,99868.00
2018-07-03T17:12:16.245Z,99867.00
2018-07-03T17:14:43.842Z,99871.00
2018-07-03T17:17:11.419Z,99868.00
2018-07-03T17:19:40.549Z,99870.00
2018-07-03T17:22:08.160Z,99870.00
2018-07-03T17:24:36.126Z,99865.00
2018-07-03T17:27:04.463Z,99868.00
2018-07-03T17:29:32.767Z,99883.00
2018-07-03T17:32:00.668Z,99880.00
2018-07-03T17:34:28.331Z,99876.00
2018-07-03T17:36:56.139Z,99875.00
2018-07-03T17:39:35.575Z,99875.00
2018-07-03T17:42:20.688Z,99875.00
2018-07-03T17:45:35.301Z,99872.00
2018-07-03T17:48:04.315Z,99871.00
2018-07-03T17:50:32.519Z,99870.00
2018-07-03T17:53:00.399Z,99870.00
2018-07-03T17:55:28.078Z,99869.00
2018-07-03T17:57:56.315Z,99867.00
2018-07-03T18:00:24.269Z,99869.00
2018-07-03T18:02:52.504Z,99870.00
2018-07-03T18:05:20.351Z,99870.00
2018-07-03T18:07:48.236Z,99869.00
2018-07-03T18:10:15.949Z,99869.00
2018-07-03T18:12:43.645Z,99868.00
2018-07-03T18:15:11.256Z,99874.00
2018-07-03T18:17:39.008Z,99871.00
2018-07-03T18:20:06.653Z,99870.00
2018-07-03T18:22:34.280Z,99868.00
2018-07-03T18:25:02.580Z,99868.00
2018-07-03T18:27:30.396Z,99869.00
2018-07-03T18:29:58.036Z,99871.00
2018-07-03T18:32:26.271Z,99865.00
2018-07-03T18:34:54.123Z,99870.00
2018-07-03T18:37:21.903Z,99872.00
2018-07-03T18:39:49.781Z,99874.00
2018-07-03T18:42:17.500Z,99874.00
2018-07-03T18:44:45.246Z,99874.00
2018-07-03T18:47:12.935Z,99872.00
2018-07-03T18:49:40.587Z,99870.00
2018-07-03T18:52:08.183Z,99868.00
2018-07-03T18:54:35.834Z,99870.00
2018-07-03T18:57:03.854Z,99877.00
2018-07-03T18:59:31.469Z,99876.00
2018-07-03T19:01:59.117Z,99875.00
2018-07-03T19:04:27.327Z,99871.00
2018-07-03T19:06:55.788Z,99869.00
2018-07-03T19:09:23.848Z,99873.00
2018-07-03T19:11:51.627Z,99871.00
2018-07-03T19:14:19.261Z,99881.00
2018-07-03T19:16:46.928Z,99880.00
2018-07-03T19:19:14.684Z,99880.00
2018-07-03T19:21:42.372Z,99885.00
2018-07-03T19:24:10.106Z,99885.00
2018-07-03T19:26:37.764Z,99884.00
2018-07-03T19:29:05.389Z,99883.00
2018-07-03T19:31:33.475Z,99895.00
2018-07-03T19:34:01.148Z,99897.00
2018-07-03T19:36:28.788Z,99895.00
2018-07-03T19:38:56.480Z,99894.00
2018-07-03T19:41:24.328Z,99895.00
2018-07-03T19:43:51.938Z,99898.00
2018-07-03T19:46:19.560Z,99899.00
2018-07-03T19:48:47.259Z,99902.00
2018-07-03T19:51:14.893Z,99904.00
2018-07-03T19:53:42.575Z,99904.00
2018-07-03T19:56:10.223Z,99900.00
2018-07-03T19:58:37.927Z,99900.00
2018-07-03T20:01:05.631Z,99903.00
2018-07-03T20:03:33.291Z,99911.00
2018-07-03T20:06:01.216Z,99911.00
2018-07-03T20:08:28.804Z,99911.00
2018-07-03T20:10:56.370Z,99912.00
2018-07-03T20:13:24.141Z,99910.00
2018-07-03T20:15:51.831Z,99912.00
2018-07-03T20:18:19.512Z,99911.00
2018-07-03T20:20:47.135Z,99915.00
2018-07-03T20:23:15.815Z,99908.00
2018-07-03T20:25:51.568Z,99917.00
2018-07-03T20:28:19.742Z,99918.00
2018-07-03T20:30:47.677Z,99917.00
2018-07-03T20:33:15.379Z,99921.00
2018-07-03T20:35:43.208Z,99926.00
2018-07-03T20:38:10.836Z,99924.00
2018-07-03T20:40:50.154Z,99918.00
2018-07-03T20:43:17.932Z,99927.00
2018-07-03T20:45:45.512Z,99929.00
2018-07-03T20:48:13.175Z,99925.00
2018-07-03T20:50:40.820Z,99931.00
2018-07-03T20:53:08.478Z,99926.00
2018-07-03T20:55:36.132Z,99931.00
2018-07-03T20:58:03.844Z,99930.00
2018-07-03T21:00:31.411Z,99931.00
2018-07-03T21:02:59.044Z,99930.00
2018-07-03T21:05:26.795Z,99930.00
2018-07-03T21:07:54.383Z,99933.00
2018-07-03T21:10:22.019Z,99946.00
2018-07-03T21:12:49.720Z,99937.00
2018-07-03T21:15:17.328Z,99940.00
2018-07-03T21:17:44.944Z,99935.00
2018-07-03T21:20:12.659Z,99942.00
2018-07-03T21:22:40.293Z,99938.00
2018-07-03T21:25:08.063Z,99941.00
2018-07-03T21:27:35.638Z,99933.00
2018-07-03T21:30:03.582Z,99930.00
2018-07-03T21:32:31.208Z,99932.00
2018-07-03T21:34:58.807Z,99937.00
2018-07-03T21:37:26.496Z,99933.00
2018-07-03T21:39:54.087Z,99946.00
2018-07-03T21:42:21.714Z,99945.00
2018-07-03T21:44:49.390Z,99948.00
2018-07-03T21:47:17.126Z,99939.00
2018-07-03T21:49:44.762Z,99946.00
2018-07-03T21:52:12.333Z,99950.00
2018-07-03T21:54:39.911Z,99946.00
2018-07-03T21:57:07.546Z,99943.00
2018-07-03T21:59:35.140Z,99944.00
2018-07-03T22:02:03.364Z,99944.00
2018-07-03T22:04:31.054Z,99941.00
2018-07-03T22:06:58.635Z,99938.00
2018-07-03T22:09:26.280Z,99936.00
2018-07-03T22:11:54.157Z,99937.00
2018-07-03T22:14:21.725Z,99943.00
2018-07-03T22:16:55.583Z,99942.00
2018-07-03T22:19:23.175Z,99944.00
2018-07-03T22:21:50.960Z,99939.00
2018-07-03T22:24:18.562Z,99938.00
2018-07-03T22:26:46.156Z,99936.00
2018-07-03T22:29:13.711Z,99933.00
2018-07-03T22:31:41.341Z,99929.00
2018-07-03T22:34:08.971Z,99932.00
2018-07-03T22:36:36.715Z,99928.00
2018-07-03T22:39:06.528Z,99932.00
2018-07-03T22:41:34.250Z,99926.00
2018-07-03T22:44:01.865Z,99929.00
2018-07-03T22:46:29.693Z,99932.00
2018-07-03T22:48:57.270Z,99929.00
2018-07-03T22:51:24.871Z,99927.00
2018-07-03T22:53:52.709Z,99937.00
2018-07-03T22:56:20.411Z,99933.00
2018-07-03T22:58:48.684Z,99937.00
2018-07-03T23:01:16.505Z,99935.00
2018-07-03T23:03:44.100Z,99939.00
2018-07-03T23:06:11.699Z,99940.00
2018-07-03T23:08:39.390Z,99942.00
2018-07-03T23:11:06.981Z,99939.00
2018-07-03T23:13:34.981Z,99940.00
2018-07-03T23:16:02.696Z,99938.00
2018-07-03T23:18:30.353Z,99945.00
2018-07-03T23:20:57.973Z,99946.00
2018-07-03T23:23:25.636Z,99947.00
2018-07-03T23:25:53.244Z,99943.00
2018-07-03T23:28:21.155Z,99945.00
2018-07-03T23:30:48.797Z,99948.00
2018-07-03T23:33:16.461Z,99946.00
2018-07-03T23:35:44.164Z,99943.00
2018-07-03T23:38:12.348Z,99941.00
2018-07-03T23:40:40.002Z,99942.00
2018-07-03T23:43:07.544Z,99939.00
2018-07-03T23:45:55.775Z,99939.00
2018-07-03T23:48:41.202Z,99936.00
2018-07-03T23:51:32.661Z,99935.00
2018-07-03T23:54:24.048Z,99934.00
2018-07-03T23:57:15.539Z,99934.00
